sensor_id;sensor_type;location;lat;lon;timestamp;temperature;humidity
4643;DHT22;2334;48.710;9.622;2024-02-21T00:01:37;4.30;99.90
4643;DHT22;2334;48.710;9.622;2024-02-21T00:04:04;4.20;99.90
4643;DHT22;2334;48.710;9.622;2024-02-21T00:06:31;4.30;99.90
4643;DHT22;2334;48.710;9.622;2024-02-21T00:09:02;4.30;99.90
4643;DHT22;2334;48.710;9.622;2024-02-21T00:11:29;4.20;99.90
4643;DHT22;2334;48.710;9.622;2024-02-21T00:13:56;4.30;99.90
4643;DHT22;2334;48.710;9.622;2024-02-21T00:16:22;4.30;99.90
4643;DHT22;2334;48.710;9.622;2024-02-21T00:18:50;4.30;99.90
4643;DHT22;2334;48.710;9.622;2024-02-21T00:21:16;4.30;99.90
4643;DHT22;2334;48.710;9.622;2024-02-21T00:23:44;4.40;99.90
4643;DHT22;2334;48.710;9.622;2024-02-21T00:26:14;4.40;99.90
4643;DHT22;2334;48.710;9.622;2024-02-21T00:28:41;4.40;99.90
4643;DHT22;2334;48.710;9.622;2024-02-21T00:31:10;4.40;99.90
4643;DHT22;2334;48.710;9.622;2024-02-21T00:33:37;4.40;99.90
4643;DHT22;2334;48.710;9.622;2024-02-21T00:36:04;4.30;99.90
4643;DHT22;2334;48.710;9.622;2024-02-21T00:38:31;4.40;99.90
4643;DHT22;2334;48.710;9.622;2024-02-21T00:40:58;4.40;99.90
4643;DHT22;2334;48.710;9.622;2024-02-21T00:43:26;4.40;99.90
4643;DHT22;2334;48.710;9.622;2024-02-21T00:45:53;4.40;99.90
4643;DHT22;2334;48.710;9.622;2024-02-21T00:48:20;4.40;99.90
4643;DHT22;2334;48.710;9.622;2024-02-21T00:50:47;4.30;99.90
4643;DHT22;2334;48.710;9.622;2024-02-21T00:53:14;4.30;99.90
4643;DHT22;2334;48.710;9.622;2024-02-21T00:55:41;4.30;99.90
4643;DHT22;2334;48.710;9.622;2024-02-21T00:58:09;4.30;99.90
4643;DHT22;2334;48.710;9.622;2024-02-21T01:00:37;4.30;99.90
4643;DHT22;2334;48.710;9.622;2024-02-21T01:03:04;4.30;99.90
4643;DHT22;2334;48.710;9.622;2024-02-21T01:05:31;4.30;99.90
4643;DHT22;2334;48.710;9.622;2024-02-21T01:07:58;4.40;99.90
4643;DHT22;2334;48.710;9.622;2024-02-21T01:10:25;4.40;99.90
4643;DHT22;2334;48.710;9.622;2024-02-21T01:12:51;4.40;99.90
4643;DHT22;2334;48.710;9.622;2024-02-21T01:15:18;4.40;99.90
4643;DHT22;2334;48.710;9.622;2024-02-21T01:17:47;4.30;99.90
4643;DHT22;2334;48.710;9.622;2024-02-21T01:20:15;4.30;99.90
4643;DHT22;2334;48.710;9.622;2024-02-21T01:22:43;4.40;99.90
4643;DHT22;2334;48.710;9.622;2024-02-21T01:25:09;4.40;99.90
4643;DHT22;2334;48.710;9.622;2024-02-21T01:27:36;4.40;99.90
4643;DHT22;2334;48.710;9.622;2024-02-21T01:30:04;4.40;99.90
4643;DHT22;2334;48.710;9.622;2024-02-21T01:32:32;4.40;99.90
4643;DHT22;2334;48.710;9.622;2024-02-21T01:35:00;4.50;99.90
4643;DHT22;2334;48.710;9.622;2024-02-21T01:37:27;4.40;99.90
4643;DHT22;2334;48.710;9.622;2024-02-21T01:39:54;4.50;99.90
4643;DHT22;2334;48.710;9.622;2024-02-21T01:42:21;4.50;99.90
4643;DHT22;2334;48.710;9.622;2024-02-21T01:44:48;4.50;99.90
4643;DHT22;2334;48.710;9.622;2024-02-21T01:47:15;4.50;99.90
4643;DHT22;2334;48.710;9.622;2024-02-21T01:49:41;4.50;99.90
4643;DHT22;2334;48.710;9.622;2024-02-21T01:52:10;4.50;99.90
4643;DHT22;2334;48.710;9.622;2024-02-21T01:54:37;4.50;99.90
4643;DHT22;2334;48.710;9.622;2024-02-21T01:57:05;4.50;99.90
4643;DHT22;2334;48.710;9.622;2024-02-21T01:59:32;4.50;99.90
4643;DHT22;2334;48.710;9.622;2024-02-21T02:02:00;4.50;99.90
4643;DHT22;2334;48.710;9.622;2024-02-21T02:04:27;4.50;99.90
4643;DHT22;2334;48.710;9.622;2024-02-21T02:06:54;4.50;99.90
4643;DHT22;2334;48.710;9.622;2024-02-21T02:09:23;4.50;99.90
4643;DHT22;2334;48.710;9.622;2024-02-21T02:11:50;4.50;99.90
4643;DHT22;2334;48.710;9.622;2024-02-21T02:14:19;4.50;99.90
4643;DHT22;2334;48.710;9.622;2024-02-21T02:16:46;4.50;99.90
4643;DHT22;2334;48.710;9.622;2024-02-21T02:19:14;4.50;99.90
4643;DHT22;2334;48.710;9.622;2024-02-21T02:21:46;4.50;99.90
4643;DHT22;2334;48.710;9.622;2024-02-21T02:24:15;4.50;99.90
4643;DHT22;2334;48.710;9.622;2024-02-21T02:26:42;4.50;99.90
4643;DHT22;2334;48.710;9.622;2024-02-21T02:29:09;4.50;99.90
4643;DHT22;2334;48.710;9.622;2024-02-21T02:31:35;4.50;99.90
4643;DHT22;2334;48.710;9.622;2024-02-21T02:34:03;4.50;99.90
4643;DHT22;2334;48.710;9.622;2024-02-21T02:36:32;4.50;99.90
4643;DHT22;2334;48.710;9.622;2024-02-21T02:38:59;4.50;99.90
4643;DHT22;2334;48.710;9.622;2024-02-21T02:41:27;4.50;99.90
4643;DHT22;2334;48.710;9.622;2024-02-21T02:43:54;4.50;99.90
4643;DHT22;2334;48.710;9.622;2024-02-21T02:46:21;4.50;99.90
4643;DHT22;2334;48.710;9.622;2024-02-21T02:48:48;4.50;99.90
4643;DHT22;2334;48.710;9.622;2024-02-21T02:51:15;4.60;99.90
4643;DHT22;2334;48.710;9.622;2024-02-21T02:53:42;4.60;99.90
4643;DHT22;2334;48.710;9.622;2024-02-21T02:56:14;4.60;99.90
4643;DHT22;2334;48.710;9.622;2024-02-21T02:58:43;4.60;99.90
4643;DHT22;2334;48.710;9.622;2024-02-21T03:01:10;4.60;99.90
4643;DHT22;2334;48.710;9.622;2024-02-21T03:03:37;4.60;99.90
4643;DHT22;2334;48.710;9.622;2024-02-21T03:06:04;4.60;99.90
4643;DHT22;2334;48.710;9.622;2024-02-21T03:08:31;4.60;99.90
4643;DHT22;2334;48.710;9.622;2024-02-21T03:10:59;4.60;99.90
4643;DHT22;2334;48.710;9.622;2024-02-21T03:13:26;4.70;99.90
4643;DHT22;2334;48.710;9.622;2024-02-21T03:15:55;4.70;99.90
4643;DHT22;2334;48.710;9.622;2024-02-21T03:18:22;4.70;99.90
4643;DHT22;2334;48.710;9.622;2024-02-21T03:20:48;4.70;99.90
4643;DHT22;2334;48.710;9.622;2024-02-21T03:23:15;4.70;99.90
4643;DHT22;2334;48.710;9.622;2024-02-21T03:25:42;4.70;99.90
4643;DHT22;2334;48.710;9.622;2024-02-21T03:28:09;4.70;99.90
4643;DHT22;2334;48.710;9.622;2024-02-21T03:30:36;4.80;99.90
4643;DHT22;2334;48.710;9.622;2024-02-21T03:33:04;4.80;99.90
4643;DHT22;2334;48.710;9.622;2024-02-21T03:35:31;4.80;99.90
4643;DHT22;2334;48.710;9.622;2024-02-21T03:37:58;4.80;99.90
4643;DHT22;2334;48.710;9.622;2024-02-21T03:40:36;4.80;99.90
4643;DHT22;2334;48.710;9.622;2024-02-21T03:43:03;4.80;99.90
4643;DHT22;2334;48.710;9.622;2024-02-21T03:45:30;4.80;99.90
4643;DHT22;2334;48.710;9.622;2024-02-21T03:47:56;4.80;99.90
4643;DHT22;2334;48.710;9.622;2024-02-21T03:50:26;4.80;99.90
4643;DHT22;2334;48.710;9.622;2024-02-21T03:52:53;4.80;99.90
4643;DHT22;2334;48.710;9.622;2024-02-21T03:55:20;4.80;99.90
4643;DHT22;2334;48.710;9.622;2024-02-21T03:57:47;4.80;99.90
4643;DHT22;2334;48.710;9.622;2024-02-21T04:00:15;4.80;99.90
4643;DHT22;2334;48.710;9.622;2024-02-21T04:02:42;4.80;99.90
4643;DHT22;2334;48.710;9.622;2024-02-21T04:05:14;4.80;99.90
4643;DHT22;2334;48.710;9.622;2024-02-21T04:07:43;4.80;99.90
4643;DHT22;2334;48.710;9.622;2024-02-21T04:10:10;4.80;99.90
4643;DHT22;2334;48.710;9.622;2024-02-21T04:12:37;4.80;99.90
4643;DHT22;2334;48.710;9.622;2024-02-21T04:15:05;4.80;99.90
4643;DHT22;2334;48.710;9.622;2024-02-21T04:17:32;4.80;99.90
4643;DHT22;2334;48.710;9.622;2024-02-21T04:20:02;4.80;99.90
4643;DHT22;2334;48.710;9.622;2024-02-21T04:22:30;4.80;99.90
4643;DHT22;2334;48.710;9.622;2024-02-21T04:24:59;4.80;99.90
4643;DHT22;2334;48.710;9.622;2024-02-21T04:27:26;4.70;99.90
4643;DHT22;2334;48.710;9.622;2024-02-21T04:29:53;4.70;99.90
4643;DHT22;2334;48.710;9.622;2024-02-21T04:32:20;4.70;99.90
4643;DHT22;2334;48.710;9.622;2024-02-21T04:34:48;4.60;99.90
4643;DHT22;2334;48.710;9.622;2024-02-21T04:37:15;4.60;99.90
4643;DHT22;2334;48.710;9.622;2024-02-21T04:39:42;4.60;99.90
4643;DHT22;2334;48.710;9.622;2024-02-21T04:42:10;4.60;99.90
4643;DHT22;2334;48.710;9.622;2024-02-21T04:44:39;4.60;99.90
4643;DHT22;2334;48.710;9.622;2024-02-21T04:47:07;4.60;99.90
4643;DHT22;2334;48.710;9.622;2024-02-21T04:49:34;4.60;99.90
4643;DHT22;2334;48.710;9.622;2024-02-21T04:52:01;4.50;99.90
4643;DHT22;2334;48.710;9.622;2024-02-21T04:54:29;4.50;99.90
4643;DHT22;2334;48.710;9.622;2024-02-21T04:56:55;4.50;99.90
4643;DHT22;2334;48.710;9.622;2024-02-21T04:59:24;4.50;99.90
4643;DHT22;2334;48.710;9.622;2024-02-21T05:01:50;4.50;99.90
4643;DHT22;2334;48.710;9.622;2024-02-21T05:04:17;4.60;99.90
4643;DHT22;2334;48.710;9.622;2024-02-21T05:06:44;4.70;99.90
4643;DHT22;2334;48.710;9.622;2024-02-21T05:09:11;4.60;99.90
4643;DHT22;2334;48.710;9.622;2024-02-21T05:11:38;4.50;99.90
4643;DHT22;2334;48.710;9.622;2024-02-21T05:14:05;4.40;99.90
4643;DHT22;2334;48.710;9.622;2024-02-21T05:16:34;4.40;99.90
4643;DHT22;2334;48.710;9.622;2024-02-21T05:19:01;4.20;99.90
4643;DHT22;2334;48.710;9.622;2024-02-21T05:21:29;4.20;99.90
4643;DHT22;2334;48.710;9.622;2024-02-21T05:23:56;4.20;99.90
4643;DHT22;2334;48.710;9.622;2024-02-21T05:26:24;4.20;99.90
4643;DHT22;2334;48.710;9.622;2024-02-21T05:28:52;4.20;99.90
4643;DHT22;2334;48.710;9.622;2024-02-21T05:31:19;4.10;99.90
4643;DHT22;2334;48.710;9.622;2024-02-21T05:33:48;4.10;99.90
4643;DHT22;2334;48.710;9.622;2024-02-21T05:36:14;4.00;99.90
4643;DHT22;2334;48.710;9.622;2024-02-21T05:38:41;4.00;99.90
4643;DHT22;2334;48.710;9.622;2024-02-21T05:41:08;3.90;99.90
4643;DHT22;2334;48.710;9.622;2024-02-21T05:43:35;3.90;99.90
4643;DHT22;2334;48.710;9.622;2024-02-21T05:46:02;3.90;99.90
4643;DHT22;2334;48.710;9.622;2024-02-21T05:48:29;3.60;99.90
4643;DHT22;2334;48.710;9.622;2024-02-21T05:50:57;3.50;99.90
4643;DHT22;2334;48.710;9.622;2024-02-21T05:53:24;3.40;99.90
4643;DHT22;2334;48.710;9.622;2024-02-21T05:55:51;3.50;99.90
4643;DHT22;2334;48.710;9.622;2024-02-21T05:58:20;3.50;99.90
4643;DHT22;2334;48.710;9.622;2024-02-21T06:00:50;3.50;99.90
4643;DHT22;2334;48.710;9.622;2024-02-21T06:03:17;3.50;99.90
4643;DHT22;2334;48.710;9.622;2024-02-21T06:05:44;3.50;99.90
4643;DHT22;2334;48.710;9.622;2024-02-21T06:08:12;3.50;99.90
4643;DHT22;2334;48.710;9.622;2024-02-21T06:10:39;3.50;99.90
4643;DHT22;2334;48.710;9.622;2024-02-21T06:13:06;3.50;99.90
4643;DHT22;2334;48.710;9.622;2024-02-21T06:15:33;3.50;99.90
4643;DHT22;2334;48.710;9.622;2024-02-21T06:18:00;3.50;99.90
4643;DHT22;2334;48.710;9.622;2024-02-21T06:20:29;3.50;99.90
4643;DHT22;2334;48.710;9.622;2024-02-21T06:22:56;3.50;99.90
4643;DHT22;2334;48.710;9.622;2024-02-21T06:25:25;3.50;99.90
4643;DHT22;2334;48.710;9.622;2024-02-21T06:27:52;3.50;99.90
4643;DHT22;2334;48.710;9.622;2024-02-21T06:30:19;3.50;99.90
4643;DHT22;2334;48.710;9.622;2024-02-21T06:32:46;3.50;99.90
4643;DHT22;2334;48.710;9.622;2024-02-21T06:35:13;3.50;99.90
4643;DHT22;2334;48.710;9.622;2024-02-21T06:37:41;3.40;99.90
4643;DHT22;2334;48.710;9.622;2024-02-21T06:40:11;3.40;99.90
4643;DHT22;2334;48.710;9.622;2024-02-21T06:42:39;3.40;99.90
4643;DHT22;2334;48.710;9.622;2024-02-21T06:45:06;3.40;99.90
4643;DHT22;2334;48.710;9.622;2024-02-21T06:47:33;3.40;99.90
4643;DHT22;2334;48.710;9.622;2024-02-21T06:50:00;3.40;99.90
4643;DHT22;2334;48.710;9.622;2024-02-21T06:52:28;3.40;99.90
4643;DHT22;2334;48.710;9.622;2024-02-21T06:54:55;3.40;99.90
4643;DHT22;2334;48.710;9.622;2024-02-21T06:57:22;3.40;99.90
4643;DHT22;2334;48.710;9.622;2024-02-21T06:59:50;3.40;99.90
4643;DHT22;2334;48.710;9.622;2024-02-21T07:02:17;3.50;99.90
4643;DHT22;2334;48.710;9.622;2024-02-21T07:04:43;3.50;99.90
4643;DHT22;2334;48.710;9.622;2024-02-21T07:07:10;3.60;99.90
4643;DHT22;2334;48.710;9.622;2024-02-21T07:09:38;3.70;99.90
4643;DHT22;2334;48.710;9.622;2024-02-21T07:12:05;3.70;99.90
4643;DHT22;2334;48.710;9.622;2024-02-21T07:14:32;3.80;99.90
4643;DHT22;2334;48.710;9.622;2024-02-21T07:17:00;3.80;99.90
4643;DHT22;2334;48.710;9.622;2024-02-21T07:19:27;3.80;99.90
4643;DHT22;2334;48.710;9.622;2024-02-21T07:21:54;3.80;99.90
4643;DHT22;2334;48.710;9.622;2024-02-21T07:24:22;3.90;99.90
4643;DHT22;2334;48.710;9.622;2024-02-21T07:26:49;3.90;99.90
4643;DHT22;2334;48.710;9.622;2024-02-21T07:29:15;4.00;99.90
4643;DHT22;2334;48.710;9.622;2024-02-21T07:31:43;4.00;99.90
4643;DHT22;2334;48.710;9.622;2024-02-21T07:34:15;4.10;99.90
4643;DHT22;2334;48.710;9.622;2024-02-21T07:36:42;4.10;99.90
4643;DHT22;2334;48.710;9.622;2024-02-21T07:39:10;4.20;99.90
4643;DHT22;2334;48.710;9.622;2024-02-21T07:41:37;4.20;99.90
4643;DHT22;2334;48.710;9.622;2024-02-21T07:44:05;4.30;99.90
4643;DHT22;2334;48.710;9.622;2024-02-21T07:46:32;4.40;99.90
4643;DHT22;2334;48.710;9.622;2024-02-21T07:49:00;4.50;99.90
4643;DHT22;2334;48.710;9.622;2024-02-21T07:51:29;4.50;99.90
4643;DHT22;2334;48.710;9.622;2024-02-21T07:53:56;4.60;99.90
4643;DHT22;2334;48.710;9.622;2024-02-21T07:56:23;4.70;99.90
4643;DHT22;2334;48.710;9.622;2024-02-21T07:58:50;4.80;99.90
4643;DHT22;2334;48.710;9.622;2024-02-21T08:01:18;5.00;99.90
4643;DHT22;2334;48.710;9.622;2024-02-21T08:03:45;5.00;99.90
4643;DHT22;2334;48.710;9.622;2024-02-21T08:06:12;5.00;99.90
4643;DHT22;2334;48.710;9.622;2024-02-21T08:08:41;5.10;99.90
4643;DHT22;2334;48.710;9.622;2024-02-21T08:11:08;5.20;99.90
4643;DHT22;2334;48.710;9.622;2024-02-21T08:13:35;5.30;99.90
4643;DHT22;2334;48.710;9.622;2024-02-21T08:16:02;5.40;99.90
4643;DHT22;2334;48.710;9.622;2024-02-21T08:18:29;5.60;99.90
4643;DHT22;2334;48.710;9.622;2024-02-21T08:20:56;5.70;99.90
4643;DHT22;2334;48.710;9.622;2024-02-21T08:23:23;5.90;99.90
4643;DHT22;2334;48.710;9.622;2024-02-21T08:25:52;6.00;99.90
4643;DHT22;2334;48.710;9.622;2024-02-21T08:28:18;6.10;99.90
4643;DHT22;2334;48.710;9.622;2024-02-21T08:30:45;6.20;99.90
4643;DHT22;2334;48.710;9.622;2024-02-21T08:35:40;6.40;99.90
4643;DHT22;2334;48.710;9.622;2024-02-21T08:38:07;6.40;99.90
4643;DHT22;2334;48.710;9.622;2024-02-21T08:40:34;6.50;99.90
4643;DHT22;2334;48.710;9.622;2024-02-21T08:43:03;6.70;99.90
4643;DHT22;2334;48.710;9.622;2024-02-21T08:45:30;6.90;99.90
4643;DHT22;2334;48.710;9.622;2024-02-21T08:47:57;7.10;99.90
4643;DHT22;2334;48.710;9.622;2024-02-21T08:50:24;7.10;99.90
4643;DHT22;2334;48.710;9.622;2024-02-21T08:52:51;7.20;99.90
4643;DHT22;2334;48.710;9.622;2024-02-21T08:55:20;7.10;99.90
4643;DHT22;2334;48.710;9.622;2024-02-21T08:57:46;7.10;99.90
4643;DHT22;2334;48.710;9.622;2024-02-21T09:00:16;7.10;99.90
4643;DHT22;2334;48.710;9.622;2024-02-21T09:02:43;7.20;99.90
4643;DHT22;2334;48.710;9.622;2024-02-21T09:05:10;7.30;99.90
4643;DHT22;2334;48.710;9.622;2024-02-21T09:07:37;7.40;99.90
4643;DHT22;2334;48.710;9.622;2024-02-21T09:10:04;7.30;99.90
4643;DHT22;2334;48.710;9.622;2024-02-21T09:12:32;7.20;99.90
4643;DHT22;2334;48.710;9.622;2024-02-21T09:14:58;7.40;99.90
4643;DHT22;2334;48.710;9.622;2024-02-21T09:17:27;7.40;99.90
4643;DHT22;2334;48.710;9.622;2024-02-21T09:19:55;7.50;99.90
4643;DHT22;2334;48.710;9.622;2024-02-21T09:22:24;7.50;99.90
4643;DHT22;2334;48.710;9.622;2024-02-21T09:24:51;7.50;99.90
4643;DHT22;2334;48.710;9.622;2024-02-21T09:27:18;7.50;99.90
4643;DHT22;2334;48.710;9.622;2024-02-21T09:29:48;7.50;99.90
4643;DHT22;2334;48.710;9.622;2024-02-21T09:32:14;7.60;99.90
4643;DHT22;2334;48.710;9.622;2024-02-21T09:34:45;7.80;99.90
4643;DHT22;2334;48.710;9.622;2024-02-21T09:37:12;7.90;99.90
4643;DHT22;2334;48.710;9.622;2024-02-21T09:39:39;7.90;99.90
4643;DHT22;2334;48.710;9.622;2024-02-21T09:42:06;8.10;99.90
4643;DHT22;2334;48.710;9.622;2024-02-21T09:44:37;8.30;99.90
4643;DHT22;2334;48.710;9.622;2024-02-21T09:47:07;8.40;99.90
4643;DHT22;2334;48.710;9.622;2024-02-21T09:49:35;8.50;99.90
4643;DHT22;2334;48.710;9.622;2024-02-21T09:52:07;8.60;99.90
4643;DHT22;2334;48.710;9.622;2024-02-21T09:54:35;8.50;99.90
4643;DHT22;2334;48.710;9.622;2024-02-21T09:57:03;8.50;99.90
4643;DHT22;2334;48.710;9.622;2024-02-21T09:59:32;8.60;99.90
4643;DHT22;2334;48.710;9.622;2024-02-21T10:01:59;8.70;99.90
4643;DHT22;2334;48.710;9.622;2024-02-21T10:04:27;8.90;99.90
4643;DHT22;2334;48.710;9.622;2024-02-21T10:06:54;8.90;99.90
4643;DHT22;2334;48.710;9.622;2024-02-21T10:09:23;9.00;99.90
4643;DHT22;2334;48.710;9.622;2024-02-21T10:11:53;8.90;99.90
4643;DHT22;2334;48.710;9.622;2024-02-21T10:14:20;8.90;99.90
4643;DHT22;2334;48.710;9.622;2024-02-21T10:16:48;8.90;99.90
4643;DHT22;2334;48.710;9.622;2024-02-21T10:19:19;9.00;99.90
4643;DHT22;2334;48.710;9.622;2024-02-21T10:22:02;9.00;99.90
4643;DHT22;2334;48.710;9.622;2024-02-21T10:24:31;9.10;99.90
4643;DHT22;2334;48.710;9.622;2024-02-21T10:27:01;9.20;99.90
4643;DHT22;2334;48.710;9.622;2024-02-21T10:29:29;9.50;99.90
4643;DHT22;2334;48.710;9.622;2024-02-21T10:32:06;9.40;99.90
4643;DHT22;2334;48.710;9.622;2024-02-21T10:34:33;9.50;99.90
4643;DHT22;2334;48.710;9.622;2024-02-21T10:37:01;9.70;99.90
4643;DHT22;2334;48.710;9.622;2024-02-21T10:39:30;9.90;99.90
4643;DHT22;2334;48.710;9.622;2024-02-21T10:42:00;10.00;99.90
4643;DHT22;2334;48.710;9.622;2024-02-21T10:44:30;10.00;99.90
4643;DHT22;2334;48.710;9.622;2024-02-21T10:47:00;10.10;99.90
4643;DHT22;2334;48.710;9.622;2024-02-21T10:49:32;10.20;99.90
4643;DHT22;2334;48.710;9.622;2024-02-21T10:52:06;10.30;99.90
4643;DHT22;2334;48.710;9.622;2024-02-21T10:54:44;10.60;99.90
4643;DHT22;2334;48.710;9.622;2024-02-21T10:57:16;10.70;99.90
4643;DHT22;2334;48.710;9.622;2024-02-21T10:59:45;10.70;99.90
4643;DHT22;2334;48.710;9.622;2024-02-21T11:02:11;10.80;99.90
4643;DHT22;2334;48.710;9.622;2024-02-21T11:04:40;10.90;99.90
4643;DHT22;2334;48.710;9.622;2024-02-21T11:07:07;10.90;99.90
4643;DHT22;2334;48.710;9.622;2024-02-21T11:09:34;11.10;99.90
4643;DHT22;2334;48.710;9.622;2024-02-21T11:12:05;11.10;99.90
4643;DHT22;2334;48.710;9.622;2024-02-21T11:14:32;11.30;99.90
4643;DHT22;2334;48.710;9.622;2024-02-21T11:17:02;11.30;99.90
4643;DHT22;2334;48.710;9.622;2024-02-21T11:19:30;11.50;99.90
4643;DHT22;2334;48.710;9.622;2024-02-21T11:21:57;11.20;99.90
4643;DHT22;2334;48.710;9.622;2024-02-21T11:24:27;11.40;99.90
4643;DHT22;2334;48.710;9.622;2024-02-21T11:26:55;11.40;99.90
4643;DHT22;2334;48.710;9.622;2024-02-21T11:29:26;11.40;99.90
4643;DHT22;2334;48.710;9.622;2024-02-21T11:31:54;11.30;99.90
4643;DHT22;2334;48.710;9.622;2024-02-21T11:34:21;11.30;99.90
4643;DHT22;2334;48.710;9.622;2024-02-21T11:36:49;11.30;99.90
4643;DHT22;2334;48.710;9.622;2024-02-21T11:39:21;11.50;99.90
4643;DHT22;2334;48.710;9.622;2024-02-21T11:42:02;11.20;99.90
4643;DHT22;2334;48.710;9.622;2024-02-21T11:44:35;11.20;99.90
4643;DHT22;2334;48.710;9.622;2024-02-21T11:47:03;11.10;99.90
4643;DHT22;2334;48.710;9.622;2024-02-21T11:49:31;11.10;99.90
4643;DHT22;2334;48.710;9.622;2024-02-21T11:51:59;11.00;99.90
4643;DHT22;2334;48.710;9.622;2024-02-21T11:54:29;10.90;99.90
4643;DHT22;2334;48.710;9.622;2024-02-21T11:56:56;11.00;99.90
4643;DHT22;2334;48.710;9.622;2024-02-21T11:59:23;10.90;99.90
4643;DHT22;2334;48.710;9.622;2024-02-21T12:01:53;11.00;99.90
4643;DHT22;2334;48.710;9.622;2024-02-21T12:04:20;11.10;99.90
4643;DHT22;2334;48.710;9.622;2024-02-21T12:06:49;11.40;99.90
4643;DHT22;2334;48.710;9.622;2024-02-21T12:09:16;11.70;99.90
4643;DHT22;2334;48.710;9.622;2024-02-21T12:11:43;11.90;99.90
4643;DHT22;2334;48.710;9.622;2024-02-21T12:14:16;12.10;99.90
4643;DHT22;2334;48.710;9.622;2024-02-21T12:16:44;12.00;99.90
4643;DHT22;2334;48.710;9.622;2024-02-21T12:19:14;12.00;99.90
4643;DHT22;2334;48.710;9.622;2024-02-21T12:21:42;11.70;99.90
4643;DHT22;2334;48.710;9.622;2024-02-21T12:24:15;11.80;99.90
4643;DHT22;2334;48.710;9.622;2024-02-21T12:26:42;12.00;99.90
4643;DHT22;2334;48.710;9.622;2024-02-21T12:29:09;12.10;99.90
4643;DHT22;2334;48.710;9.622;2024-02-21T12:31:39;12.10;99.90
4643;DHT22;2334;48.710;9.622;2024-02-21T12:34:06;12.30;99.90
4643;DHT22;2334;48.710;9.622;2024-02-21T12:36:41;12.30;99.90
4643;DHT22;2334;48.710;9.622;2024-02-21T12:39:08;12.20;99.90
4643;DHT22;2334;48.710;9.622;2024-02-21T12:41:35;12.10;99.90
4643;DHT22;2334;48.710;9.622;2024-02-21T12:44:04;12.10;99.90
4643;DHT22;2334;48.710;9.622;2024-02-21T12:46:32;12.00;99.90
4643;DHT22;2334;48.710;9.622;2024-02-21T12:48:59;12.10;99.90
4643;DHT22;2334;48.710;9.622;2024-02-21T12:51:26;12.10;99.90
4643;DHT22;2334;48.710;9.622;2024-02-21T12:53:54;12.30;99.90
4643;DHT22;2334;48.710;9.622;2024-02-21T12:56:21;12.20;99.90
4643;DHT22;2334;48.710;9.622;2024-02-21T12:58:49;12.20;99.90
4643;DHT22;2334;48.710;9.622;2024-02-21T13:01:16;12.20;99.90
4643;DHT22;2334;48.710;9.622;2024-02-21T13:03:43;12.20;99.90
4643;DHT22;2334;48.710;9.622;2024-02-21T13:06:10;12.30;99.90
4643;DHT22;2334;48.710;9.622;2024-02-21T13:08:37;12.40;99.90
4643;DHT22;2334;48.710;9.622;2024-02-21T13:11:05;12.30;99.90
4643;DHT22;2334;48.710;9.622;2024-02-21T13:13:32;12.20;99.90
4643;DHT22;2334;48.710;9.622;2024-02-21T13:15:59;12.20;99.90
4643;DHT22;2334;48.710;9.622;2024-02-21T13:18:27;12.30;99.90
4643;DHT22;2334;48.710;9.622;2024-02-21T13:20:54;12.20;99.90
4643;DHT22;2334;48.710;9.622;2024-02-21T13:23:21;12.30;99.90
4643;DHT22;2334;48.710;9.622;2024-02-21T13:25:48;12.10;99.90
4643;DHT22;2334;48.710;9.622;2024-02-21T13:28:17;12.10;99.90
4643;DHT22;2334;48.710;9.622;2024-02-21T13:30:44;12.00;99.90
4643;DHT22;2334;48.710;9.622;2024-02-21T13:33:11;12.10;99.90
4643;DHT22;2334;48.710;9.622;2024-02-21T13:35:38;12.00;99.90
4643;DHT22;2334;48.710;9.622;2024-02-21T13:38:04;11.90;99.90
4643;DHT22;2334;48.710;9.622;2024-02-21T13:40:31;12.10;99.90
4643;DHT22;2334;48.710;9.622;2024-02-21T13:42:58;12.10;99.90
4643;DHT22;2334;48.710;9.622;2024-02-21T13:45:27;12.10;99.90
4643;DHT22;2334;48.710;9.622;2024-02-21T13:47:57;12.00;99.90
4643;DHT22;2334;48.710;9.622;2024-02-21T13:50:30;12.00;99.90
4643;DHT22;2334;48.710;9.622;2024-02-21T13:52:59;12.00;99.90
4643;DHT22;2334;48.710;9.622;2024-02-21T13:55:26;12.00;99.90
4643;DHT22;2334;48.710;9.622;2024-02-21T13:57:54;12.00;99.90
4643;DHT22;2334;48.710;9.622;2024-02-21T14:00:21;11.90;99.90
4643;DHT22;2334;48.710;9.622;2024-02-21T14:02:49;11.80;99.90
4643;DHT22;2334;48.710;9.622;2024-02-21T14:05:16;11.80;99.90
4643;DHT22;2334;48.710;9.622;2024-02-21T14:07:42;11.80;99.90
4643;DHT22;2334;48.710;9.622;2024-02-21T14:10:09;12.00;99.90
4643;DHT22;2334;48.710;9.622;2024-02-21T14:12:37;12.10;99.90
4643;DHT22;2334;48.710;9.622;2024-02-21T14:15:06;12.00;99.90
4643;DHT22;2334;48.710;9.622;2024-02-21T14:17:34;12.10;99.90
4643;DHT22;2334;48.710;9.622;2024-02-21T14:20:03;12.10;99.90
4643;DHT22;2334;48.710;9.622;2024-02-21T14:22:30;12.20;99.90
4643;DHT22;2334;48.710;9.622;2024-02-21T14:24:57;12.20;99.90
4643;DHT22;2334;48.710;9.622;2024-02-21T14:27:24;12.10;99.90
4643;DHT22;2334;48.710;9.622;2024-02-21T14:29:51;12.10;99.90
4643;DHT22;2334;48.710;9.622;2024-02-21T14:32:18;12.00;99.90
4643;DHT22;2334;48.710;9.622;2024-02-21T14:34:46;12.00;99.90
4643;DHT22;2334;48.710;9.622;2024-02-21T14:37:14;12.00;99.90
4643;DHT22;2334;48.710;9.622;2024-02-21T14:39:41;12.00;99.90
4643;DHT22;2334;48.710;9.622;2024-02-21T14:42:08;12.00;99.90
4643;DHT22;2334;48.710;9.622;2024-02-21T14:44:36;11.90;99.90
4643;DHT22;2334;48.710;9.622;2024-02-21T14:47:03;11.90;99.90
4643;DHT22;2334;48.710;9.622;2024-02-21T14:49:30;11.90;99.90
4643;DHT22;2334;48.710;9.622;2024-02-21T14:51:57;12.00;99.90
4643;DHT22;2334;48.710;9.622;2024-02-21T14:54:25;12.00;99.90
4643;DHT22;2334;48.710;9.622;2024-02-21T14:56:53;12.10;99.90
4643;DHT22;2334;48.710;9.622;2024-02-21T14:59:20;12.10;99.90
4643;DHT22;2334;48.710;9.622;2024-02-21T15:01:47;12.10;99.90
4643;DHT22;2334;48.710;9.622;2024-02-21T15:04:14;12.10;99.90
4643;DHT22;2334;48.710;9.622;2024-02-21T15:06:41;11.90;99.90
4643;DHT22;2334;48.710;9.622;2024-02-21T15:09:10;11.90;99.90
4643;DHT22;2334;48.710;9.622;2024-02-21T15:11:39;11.90;99.90
4643;DHT22;2334;48.710;9.622;2024-02-21T15:14:06;11.90;99.90
4643;DHT22;2334;48.710;9.622;2024-02-21T15:16:32;11.90;99.90
4643;DHT22;2334;48.710;9.622;2024-02-21T15:18:59;11.90;99.90
4643;DHT22;2334;48.710;9.622;2024-02-21T15:21:26;11.90;99.90
4643;DHT22;2334;48.710;9.622;2024-02-21T15:23:53;11.90;99.90
4643;DHT22;2334;48.710;9.622;2024-02-21T15:26:20;11.90;99.90
4643;DHT22;2334;48.710;9.622;2024-02-21T15:28:48;11.80;99.90
4643;DHT22;2334;48.710;9.622;2024-02-21T15:31:22;11.80;99.90
4643;DHT22;2334;48.710;9.622;2024-02-21T15:33:52;11.90;99.90
4643;DHT22;2334;48.710;9.622;2024-02-21T15:36:19;11.90;99.90
4643;DHT22;2334;48.710;9.622;2024-02-21T15:38:46;11.80;99.90
4643;DHT22;2334;48.710;9.622;2024-02-21T15:41:13;11.70;99.90
4643;DHT22;2334;48.710;9.622;2024-02-21T15:43:40;11.60;99.90
4643;DHT22;2334;48.710;9.622;2024-02-21T15:46:12;11.60;99.90
4643;DHT22;2334;48.710;9.622;2024-02-21T15:48:39;11.60;99.90
4643;DHT22;2334;48.710;9.622;2024-02-21T15:51:06;11.60;99.90
4643;DHT22;2334;48.710;9.622;2024-02-21T15:53:33;11.50;99.90
4643;DHT22;2334;48.710;9.622;2024-02-21T15:56:00;11.50;99.90
4643;DHT22;2334;48.710;9.622;2024-02-21T15:58:28;11.40;99.90
4643;DHT22;2334;48.710;9.622;2024-02-21T16:00:58;11.30;99.90
4643;DHT22;2334;48.710;9.622;2024-02-21T16:03:26;11.30;99.90
4643;DHT22;2334;48.710;9.622;2024-02-21T16:05:53;11.20;99.90
4643;DHT22;2334;48.710;9.622;2024-02-21T16:08:20;11.20;99.90
4643;DHT22;2334;48.710;9.622;2024-02-21T16:10:47;11.10;99.90
4643;DHT22;2334;48.710;9.622;2024-02-21T16:13:14;11.10;99.90
4643;DHT22;2334;48.710;9.622;2024-02-21T16:15:52;11.10;99.90
4643;DHT22;2334;48.710;9.622;2024-02-21T16:18:19;11.00;99.90